• Join FlightAware (Why Join?)
  • Login
  • US Flag 
05:00PM EDT


 

Airport Tracker/Info


-or-


 

Live Flight TrackerFlight Track Log ✈ N1989D ✈ 22-Apr-2013 ✈ KGXY - KIAD

Flight Track Log - Related Links

Times and Time Zones

All times are in EDT time to prevent confusion due to time zone crossing. See the N1989D flight status page for this flight to view local times or setup timezone preferences in your user account.

Time Position Orientation Groundspeed Altitude Reporting Facility
EDT Latitude Longitude Course Direction KTS MPH feet Rate Location/Type
03:36PM 40.4667 -104.6333 74° East 171 197 5,600  Level Denver TRACON
03:37PM 40.4833 -104.5667 72° East 247 284 8,600 3,360 Climbing Denver TRACON
03:38PM 40.4122 -104.5211 154° Southeast 267 307 12,400 3,180 Climbing Denver Center
03:39PM 40.3400 -104.4744 154° Southeast 286 329 15,400 2,820 Climbing Denver Center
03:40PM 40.2617 -104.4558 170° South 286 329 18,300 2,340 Climbing Denver Center
03:41PM 40.1700 -104.4283 167° South 319 367 20,300 1,920 Climbing Denver Center
03:42PM 39.8609 -104.3842 74° East  Level FlightAware Approximate
03:42PM 40.0972 -104.3397 137° Southeast 367 422 22,300  Level Denver Center
03:44PM 40.0581 -104.1933 109° East 402 463 24,400 1,680 Climbing Denver Center
03:45PM 40.0239 -104.0408 106° East 432 497 25,800 1,380 Climbing Denver Center
03:46PM 40.0058 -103.8764 98° East 460 529 27,300 1,080 Climbing Denver Center
03:47PM 40.0333 -103.7086 78° East 462 532 28,100 660 Climbing Denver Center
03:48PM 40.0761 -103.5328 72° East 504 580 28,700 960 Climbing Denver Center
03:49PM 40.1183 -103.3481 73° East 522 601 30,200 1,560 Climbing Denver Center
03:50PM 40.1583 -103.1661 74° East 516 594 32,000 1,560 Climbing Denver Center
03:51PM 40.1853 -102.9800 79° East 514 592 33,500 1,500 Climbing Denver Center
03:52PM 40.2094 -102.7983 80° East 504 580 35,200 1,260 Climbing Denver Center
03:53PM 40.2389 -102.5906 79° East 498 573 36,100 660 Climbing Denver Center
03:54PM 40.2625 -102.4167 80° East 506 582 36,600 420 Climbing Denver Center
03:55PM 40.2869 -102.2397 80° East 515 593 37,000 180 Climbing Denver Center
03:56PM 40.3142 -102.0292 80° East 526 605 37,000  Level Denver Center
03:57PM 40.3381 -101.8447 80° East 535 616 37,000  Level Denver Center
03:58PM 40.3661 -101.6292 80° East 539 620 37,000 240 Level Denver Center
03:59PM 40.3892 -101.4464 81° East 535 616 37,500 780 Climbing Denver Center
04:00PM 40.4150 -101.2417 81° East 513 590 38,600 720 Climbing Denver Center
04:01PM 40.4367 -101.0717 80° East 499 574 39,000 180 Climbing Denver Center
04:02PM 40.4542 -100.9289 81° East 499 574 39,000  Level Denver Center
04:03PM 40.4658 -100.6992 86° East 498 573 39,000  Level Denver Center
04:04PM 40.4736 -100.4961 87° East 502 578 39,000  Level Denver Center
04:05PM 40.4819 -100.3228 86° East 501 577 39,000  Level Denver Center
04:06PM 40.4889 -100.1467 87° East 507 583 39,000  Level Denver Center
04:07PM 40.4978 -99.9425 87° East 505 581 39,000  Level Denver Center
04:08PM 40.5061 -99.7169 87° East 505 581 39,000  Level Denver Center
04:09PM 40.5133 -99.5339 87° East 503 579 39,000 300 Level Denver Center
04:10PM 40.5197 -99.3514 87° East 502 578 39,700 600 Climbing Denver Center
04:11PM 40.5264 -99.1744 87° East 491 565 40,300 600 Climbing Denver Center
04:12PM 40.5283 -99.1056 88° East 489 563 40,500 480 Climbing Minneapolis Center
04:13PM 40.5347 -98.9322 87° East 481 554 41,000 240 Climbing Minneapolis Center
04:14PM 40.5392 -98.7572 88° East 481 554 41,000  Level Minneapolis Center
04:15PM 40.5447 -98.5819 88° East 483 556 41,000  Level Minneapolis Center
04:16PM 40.5492 -98.4025 88° East 490 564 41,000  Level Minneapolis Center
04:17PM 40.5544 -98.2214 88° East 496 571 41,000  Level Minneapolis Center
04:18PM 40.5583 -98.0022 89° East 501 577 41,000  Level Minneapolis Center
04:19PM 40.5631 -97.8186 88° East 503 579 41,000  Level Minneapolis Center
04:20PM 40.5669 -97.6350 88° East 504 580 41,000  Level Minneapolis Center
04:21PM 40.5700 -97.4514 89° East 503 579 41,000  Level Minneapolis Center
04:22PM 40.5733 -97.2822 88° East 505 581 41,000  Level Minneapolis Center
04:23PM 40.5781 -97.0625 88° East 504 580 41,000  Level Minneapolis Center
04:24PM 40.5800 -96.8789 89° East 505 581 41,000  Level Minneapolis Center
04:25PM 40.5822 -96.6975 89° East 501 577 41,000  Level Minneapolis Center
04:26PM 40.5850 -96.5150 89° East 502 578 41,000  Level Minneapolis Center
04:27PM 40.5864 -96.3342 89° East 500 575 41,000  Level Minneapolis Center
04:28PM 40.5886 -96.1531 89° East 499 574 41,000  Level Minneapolis Center
04:29PM 40.5900 -95.9728 89° East 496 571 41,000  Level Minneapolis Center
04:30PM 40.5908 -95.7542 90° East 500 575 41,000  Level Minneapolis Center
04:31PM 40.5925 -95.5722 89° East 502 578 41,000  Level Minneapolis Center
04:32PM 40.5922 -95.3917 90° East 499 574 41,000  Level Minneapolis Center
04:33PM 40.5911 -95.2125 90° East 495 570 41,000  Level Minneapolis Center
04:34PM 40.5919 -95.0322 90° East 494 568 41,000  Level Minneapolis Center
04:35PM 40.5925 -94.8533 90° East 493 567 41,000  Level Minneapolis Center
04:36PM 40.5908 -94.6742 91° East 492 566 41,000  Level Minneapolis Center
04:37PM 40.5897 -94.4756 90° East 492 566 41,000  Level Minneapolis Center
04:38PM 40.5883 -94.2975 91° East 490 564 41,000  Level Minneapolis Center
04:39PM 40.5853 -94.1200 91° East 491 565 41,000  Level Minneapolis Center
04:40PM 40.5842 -93.9411 90° East 491 565 41,000  Level Minneapolis Center
04:42PM 40.5814 -93.7253 91° East 494 568 41,000  Level Minneapolis Center
04:43PM 40.5789 -93.5458 91° East 495 570 41,000  Level Minneapolis Center
04:44PM 40.5758 -93.3653 91° East 496 571 41,000  Level Minneapolis Center
04:44PM 40.5731 -93.2931 93° East 495 570 41,000  Level Kansas City Center
04:45PM 40.5692 -93.0778 91° East 494 568 41,000  Level Kansas City Center
04:46PM 40.5658 -92.8956 91° East 489 563 41,000  Level Kansas City Center
04:47PM 40.5622 -92.7256 92° East 486 559 41,000  Level Kansas City Center
04:48PM 40.5581 -92.5447 92° East 487 560 41,000  Level Kansas City Center
04:49PM 40.5544 -92.3678 91° East 486 559 41,000  Level Kansas City Center
04:50PM 40.5500 -92.1889 92° East 483 556 41,000  Level Kansas City Center
04:51PM 40.5444 -91.9783 92° East 481 554 41,000  Level Kansas City Center
04:52PM 40.5389 -91.8036 92° East 482 555 41,000  Level Kansas City Center
04:53PM 40.5328 -91.6297 93° East 480 552 41,000  Level Kansas City Center
04:54PM 40.5300 -91.4906 91° East 480 552 41,000  Level Chicago Center
04:55PM 40.5236 -91.3183 93° East 478 550 41,000  Level Chicago Center
04:56PM 40.5175 -91.1439 93° East 478 550 41,000  Level Chicago Center
04:57PM 40.5108 -90.9697 93° East 479 551 41,000  Level Chicago Center
04:58PM 40.5050 -90.7953 92° East 478 550 41,000  Level Chicago Center
04:59PM 40.4986 -90.6214 93° East 478 550 41,000  Level Chicago Center
05:00PM 40.4894 -90.4122 93° East 480 552 41,000  Level Chicago Center
05:01PM 40.4806 -90.2397 94° East 480 552 41,000  Level Chicago Center
05:02PM 40.4717 -90.0658 94° East 482 555 41,000  Level Chicago Center
05:03PM 40.4631 -89.8928 94° East 481 554 41,000  Level Chicago Center
05:04PM 40.4561 -89.7183 93° East 481 554 41,000  Level Chicago Center
05:05PM 40.4475 -89.5128 93° East 481 554 41,000  Level Chicago Center
05:07PM 40.4378 -89.3386 94° East 483 556 41,000  Level Chicago Center
05:08PM 40.4300 -89.1647 93° East 481 554 41,000  Level Chicago Center
05:09PM 40.4214 -88.9917 94° East 479 551 41,000  Level Chicago Center
05:10PM 40.4094 -88.8208 95° East 475 547 41,000  Level Chicago Center
05:11PM 40.3983 -88.6139 94° East 474 545 41,000  Level Chicago Center
05:12PM 40.3903 -88.4469 94° East 470 541 41,000  Level Chicago Center
05:13PM 40.3794 -88.2789 95° East 467 537 41,000  Level Chicago Center
05:14PM 40.3692 -88.1119 95° East 465 535 41,000  Level Chicago Center
05:15PM 40.3569 -87.9122 95° East 464 534 41,000  Level Chicago Center
05:16PM 40.3469 -87.7458 94° East 463 533 41,000  Level Chicago Center
05:17PM 40.3358 -87.5808 95° East 461 531 41,000  Level Chicago Center
05:18PM 40.3247 -87.4153 95° East 461 531 41,000  Level Chicago Center
05:19PM 40.3133 -87.2486 95° East 463 533 41,000  Level Chicago Center
05:20PM 40.2997 -87.0517 95° East 459 528 41,000  Level Chicago Center
05:21PM 40.2886 -86.8853 95° East 463 533 41,000  Level Chicago Center
05:22PM 40.2753 -86.7250 96° East 461 531 41,000  Level Chicago Center
05:23PM 40.2633 -86.5597 95° East 461 531 41,000  Level Chicago Center
05:24PM 40.2503 -86.3950 96° East 458 527 41,000  Level Chicago Center
05:25PM 40.2342 -86.1947 96° East 459 528 41,000  Level Chicago Center
05:26PM 40.2200 -86.0264 96° East 467 537 41,000  Level Chicago Center
05:27PM 40.2067 -85.8567 96° East 469 540 41,000  Level Chicago Center
05:28PM 40.1928 -85.6883 96° East 470 541 41,000  Level Chicago Center
05:29PM 40.1794 -85.5208 96° East 468 539 41,000  Level Chicago Center
05:30PM 40.1631 -85.3408 97° East 466 536 41,000  Level Indianapolis Center
05:31PM 40.1483 -85.1694 96° East 470 541 41,000  Level Indianapolis Center
05:32PM 40.1333 -84.9994 97° East 469 540 41,000  Level Indianapolis Center
05:33PM 40.1194 -84.8294 96° East 468 539 41,000  Level Indianapolis Center
05:34PM 40.1019 -84.6592 98° East 468 539 41,000  Level Indianapolis Center
05:35PM 40.0869 -84.4889 97° East 468 539 41,000  Level Indianapolis Center
05:37PM 40.0542 -84.1481 97° East 470 541 41,000  Level Indianapolis Center
05:38PM 40.0378 -83.9789 97° East 467 537 41,000  Level Indianapolis Center
05:39PM 40.0186 -83.7808 97° East 464 534 41,000  Level Indianapolis Center
05:41PM 40.0014 -83.6089 97° East 470 541 41,000  Level Indianapolis Center
05:42PM 39.9836 -83.4358 98° East 470 541 41,000  Level Indianapolis Center
05:43PM 39.9653 -83.2608 98° East 474 545 41,000  Level Indianapolis Center
05:44PM 39.9472 -83.0889 98° East 473 544 41,000  Level Indianapolis Center
05:45PM 39.9289 -82.9164 98° East 475 547 41,000  Level Indianapolis Center
05:46PM 39.9100 -82.7444 98° East 474 545 41,000  Level Indianapolis Center
05:47PM 39.8903 -82.5725 98° East 477 549 41,000  Level Indianapolis Center
05:48PM 39.8722 -82.4006 98° East 475 547 41,000 -180 Level Indianapolis Center
05:49PM 39.8525 -82.2283 98° East 476 548 40,700 -720 Descending Indianapolis Center
05:50PM 39.8325 -82.0544 98° East 482 555 39,600 -1,140 Descending Indianapolis Center
05:51PM 39.8089 -81.8544 99° East 477 549 38,400 -1,080 Descending Indianapolis Center
05:52PM 39.7892 -81.6839 99° East 474 545 37,400 -780 Descending Indianapolis Center
05:53PM 39.7775 -81.5528 97° East 467 537 37,000 -240 Descending Cleveland Center
05:54PM 39.7517 -81.3606 100° East 477 549 37,000  Level Cleveland Center
05:55PM 39.7319 -81.1931 99° East 477 549 37,000  Level Cleveland Center
05:56PM 39.7097 -81.0203 99° East 482 555 37,000  Level Cleveland Center
05:57PM 39.6894 -80.8475 99° East 487 560 37,000  Level Cleveland Center
05:58PM 39.6669 -80.6775 100° East 487 560 37,000  Level Cleveland Center
05:59PM 39.6461 -80.5022 99° East 487 560 37,000 -420 Level Cleveland Center
06:00PM 39.6228 -80.3297 100° East 487 560 36,200 -1,020 Descending Cleveland Center
06:01PM 39.6017 -80.1600 99° East 487 560 35,000 -1,560 Descending Cleveland Center
06:02PM 39.5778 -79.9906 100° East 482 555 33,100 -3,000 Descending Cleveland Center
06:03PM 39.5364 -79.7275 101° East 467 537 27,000 -2,100 Descending Washington Center
06:04PM 39.5064 -79.5697 104° East 456 525 27,500  Climbing Washington Center
06:05PM 39.4783 -79.4069 103° East 456 525 27,000 -1,380 Descending Washington Center
06:06PM 39.4461 -79.2358 104° East 456 525 24,800 -2,100 Descending Washington Center
06:07PM 39.4211 -79.0922 103° East 434 499 22,800 -2,220 Descending Washington Center
06:08PM 39.3939 -78.9511 104° East 417 480 20,400 -2,100 Descending Washington Center
06:09PM 39.3706 -78.8186 103° East 393 452 18,600 -1,620 Descending Washington Center
06:10PM 39.3467 -78.6886 103° East 376 433 17,200 -1,560 Descending Washington Center
06:11PM 39.3228 -78.5617 104° East 369 425 15,500 -1,740 Descending Washington Center
06:12PM 39.3028 -78.4400 102° East 358 412 13,800 -1,620 Descending Washington Center
06:13PM 39.2700 -78.3314 111° Southeast 341 392 12,300 -1,500 Descending Washington Center
06:14PM 39.2239 -78.2467 125° Southeast 309 356 10,800 -1,380 Descending Washington Center
06:15PM 39.1778 -78.1619 125° Southeast 294 338 9,600 -1,200 Descending Washington Center
06:16PM 39.1358 -78.0775 123° Southeast 283 326 8,400 -1,260 Descending Washington Center
06:17PM 39.0936 -77.9986 125° Southeast 278 320 7,100 -1,200 Descending Washington Center
06:18PM 39.0514 -77.9222 125° Southeast 267 307 6,100 -540 Descending Washington Center
06:19PM 39.0172 -77.8544 123° Southeast 267 307 6,100  Level Washington Center
06:20PM 38.9728 -77.7731 125° Southeast 267 307 6,100 -60 Level Washington Center
06:23PM 38.9167 -77.6000 113° Southeast 261 300 6,000 -60 Descending Potomac TRACON
06:24PM 38.8500 -77.5667 159° South 215 247 6,000 -900 Level Potomac TRACON
06:25PM 38.7833 -77.5833 191° South 226 260 4,200 -960 Descending Potomac TRACON
06:26PM 38.7167 -77.5667 169° South 193 222 4,000 -480 Descending Potomac TRACON
06:27PM 38.7167 -77.5167 90° East 170 196 3,300 -480 Descending Potomac TRACON
06:28PM 38.7333 -77.4667 67° East 179 206 3,000 -180 Descending Potomac TRACON
06:29PM 38.7833 -77.4667 360° North 177 204 3,000 -360 Level Potomac TRACON
06:30PM 38.8333 -77.4667 360° North 177 204 2,300 -780 Descending Potomac TRACON
06:31PM 38.8833 -77.4667 360° North 144 166 1,500 -780 Descending Potomac TRACON
06:32PM 38.9167 -77.4667 360° North 133 153 800 -720 Descending Potomac TRACON